sensor_id;sensor_type;location;lat;lon;timestamp;P1;durP1;ratioP1;P2;durP2;ratioP2
61527;SDS011;47395;42.032;-8.634;2023-06-26T00:01:54;6.90;;;4.88;;
61527;SDS011;47395;42.032;-8.634;2023-06-26T00:03:55;5.35;;;4.80;;
61527;SDS011;47395;42.032;-8.634;2023-06-26T00:05:56;5.95;;;4.40;;
61527;SDS011;47395;42.032;-8.634;2023-06-26T00:08:00;5.88;;;4.72;;
61527;SDS011;47395;42.032;-8.634;2023-06-26T00:10:04;5.72;;;4.80;;
61527;SDS011;47395;42.032;-8.634;2023-06-26T00:12:07;7.28;;;4.93;;
61527;SDS011;47395;42.032;-8.634;2023-06-26T00:14:08;8.23;;;4.70;;
61527;SDS011;47395;42.032;-8.634;2023-06-26T00:16:08;8.00;;;5.28;;
61527;SDS011;47395;42.032;-8.634;2023-06-26T00:18:09;11.23;;;4.97;;
61527;SDS011;47395;42.032;-8.634;2023-06-26T00:20:11;6.95;;;5.18;;
61527;SDS011;47395;42.032;-8.634;2023-06-26T00:22:14;9.82;;;5.57;;
61527;SDS011;47395;42.032;-8.634;2023-06-26T00:24:16;7.05;;;4.85;;
61527;SDS011;47395;42.032;-8.634;2023-06-26T00:26:17;5.05;;;4.65;;
61527;SDS011;47395;42.032;-8.634;2023-06-26T00:28:17;9.63;;;4.97;;
61527;SDS011;47395;42.032;-8.634;2023-06-26T00:30:18;4.97;;;4.60;;
61527;SDS011;47395;42.032;-8.634;2023-06-26T00:32:19;9.85;;;5.30;;
61527;SDS011;47395;42.032;-8.634;2023-06-26T00:34:20;10.13;;;5.30;;
61527;SDS011;47395;42.032;-8.634;2023-06-26T00:36:21;10.05;;;5.57;;
61527;SDS011;47395;42.032;-8.634;2023-06-26T00:38:23;7.97;;;5.00;;
61527;SDS011;47395;42.032;-8.634;2023-06-26T00:40:24;6.38;;;5.10;;
61527;SDS011;47395;42.032;-8.634;2023-06-26T00:42:26;9.25;;;5.53;;
61527;SDS011;47395;42.032;-8.634;2023-06-26T00:44:27;8.27;;;5.65;;
61527;SDS011;47395;42.032;-8.634;2023-06-26T00:46:28;8.55;;;4.68;;
61527;SDS011;47395;42.032;-8.634;2023-06-26T00:48:29;6.28;;;5.18;;
61527;SDS011;47395;42.032;-8.634;2023-06-26T00:50:30;10.70;;;5.47;;
61527;SDS011;47395;42.032;-8.634;2023-06-26T00:52:32;7.05;;;5.15;;
61527;SDS011;47395;42.032;-8.634;2023-06-26T00:54:33;8.00;;;4.70;;
61527;SDS011;47395;42.032;-8.634;2023-06-26T00:56:34;8.02;;;5.10;;
61527;SDS011;47395;42.032;-8.634;2023-06-26T00:58:35;6.00;;;5.20;;
61527;SDS011;47395;42.032;-8.634;2023-06-26T01:00:36;8.25;;;5.25;;
61527;SDS011;47395;42.032;-8.634;2023-06-26T01:02:37;5.97;;;5.38;;
61527;SDS011;47395;42.032;-8.634;2023-06-26T01:04:39;5.05;;;4.63;;
61527;SDS011;47395;42.032;-8.634;2023-06-26T01:06:47;15.38;;;6.18;;
61527;SDS011;47395;42.032;-8.634;2023-06-26T01:08:50;9.25;;;5.60;;
61527;SDS011;47395;42.032;-8.634;2023-06-26T01:10:52;7.00;;;5.55;;
61527;SDS011;47395;42.032;-8.634;2023-06-26T01:12:53;7.85;;;5.70;;
61527;SDS011;47395;42.032;-8.634;2023-06-26T01:14:54;6.85;;;5.40;;
61527;SDS011;47395;42.032;-8.634;2023-06-26T01:16:54;9.50;;;5.90;;
61527;SDS011;47395;42.032;-8.634;2023-06-26T01:18:57;8.38;;;5.07;;
61527;SDS011;47395;42.032;-8.634;2023-06-26T01:21:00;10.00;;;6.13;;
61527;SDS011;47395;42.032;-8.634;2023-06-26T01:23:07;6.57;;;5.53;;
61527;SDS011;47395;42.032;-8.634;2023-06-26T01:28:28;7.60;;;5.43;;
61527;SDS011;47395;42.032;-8.634;2023-06-26T01:30:31;11.85;;;6.82;;
61527;SDS011;47395;42.032;-8.634;2023-06-26T01:32:33;7.68;;;6.20;;
61527;SDS011;47395;42.032;-8.634;2023-06-26T01:34:34;6.05;;;5.45;;
61527;SDS011;47395;42.032;-8.634;2023-06-26T01:36:35;7.47;;;6.03;;
61527;SDS011;47395;42.032;-8.634;2023-06-26T01:38:39;11.32;;;6.72;;
61527;SDS011;47395;42.032;-8.634;2023-06-26T01:40:40;7.28;;;6.68;;
61527;SDS011;47395;42.032;-8.634;2023-06-26T01:42:41;6.57;;;5.97;;
61527;SDS011;47395;42.032;-8.634;2023-06-26T01:44:45;8.15;;;6.75;;
61527;SDS011;47395;42.032;-8.634;2023-06-26T01:47:02;8.60;;;6.68;;
61527;SDS011;47395;42.032;-8.634;2023-06-26T01:49:09;10.07;;;7.28;;
61527;SDS011;47395;42.032;-8.634;2023-06-26T01:51:19;6.88;;;6.18;;
61527;SDS011;47395;42.032;-8.634;2023-06-26T01:53:29;7.50;;;6.57;;
61527;SDS011;47395;42.032;-8.634;2023-06-26T01:55:44;17.75;;;7.32;;
61527;SDS011;47395;42.032;-8.634;2023-06-26T01:57:50;12.30;;;5.72;;
61527;SDS011;47395;42.032;-8.634;2023-06-26T01:59:54;8.70;;;7.03;;
61527;SDS011;47395;42.032;-8.634;2023-06-26T02:01:56;6.70;;;5.63;;
61527;SDS011;47395;42.032;-8.634;2023-06-26T02:03:57;15.38;;;6.45;;
61527;SDS011;47395;42.032;-8.634;2023-06-26T02:05:58;15.00;;;6.43;;
61527;SDS011;47395;42.032;-8.634;2023-06-26T02:08:01;8.18;;;5.72;;
61527;SDS011;47395;42.032;-8.634;2023-06-26T02:10:04;7.93;;;5.43;;
61527;SDS011;47395;42.032;-8.634;2023-06-26T02:12:07;6.68;;;5.43;;
61527;SDS011;47395;42.032;-8.634;2023-06-26T02:14:08;8.77;;;6.00;;
61527;SDS011;47395;42.032;-8.634;2023-06-26T02:16:10;8.70;;;6.03;;
61527;SDS011;47395;42.032;-8.634;2023-06-26T02:18:11;8.18;;;5.95;;
61527;SDS011;47395;42.032;-8.634;2023-06-26T02:20:12;11.13;;;6.40;;
61527;SDS011;47395;42.032;-8.634;2023-06-26T02:22:13;6.97;;;6.03;;
61527;SDS011;47395;42.032;-8.634;2023-06-26T02:24:15;8.43;;;6.57;;
61527;SDS011;47395;42.032;-8.634;2023-06-26T02:26:16;6.38;;;5.78;;
61527;SDS011;47395;42.032;-8.634;2023-06-26T02:28:17;7.82;;;5.80;;
61527;SDS011;47395;42.032;-8.634;2023-06-26T02:30:17;8.98;;;6.70;;
61527;SDS011;47395;42.032;-8.634;2023-06-26T02:32:19;9.35;;;6.40;;
61527;SDS011;47395;42.032;-8.634;2023-06-26T02:34:23;9.57;;;5.85;;
61527;SDS011;47395;42.032;-8.634;2023-06-26T02:36:24;6.72;;;6.07;;
61527;SDS011;47395;42.032;-8.634;2023-06-26T02:38:25;6.30;;;5.57;;
61527;SDS011;47395;42.032;-8.634;2023-06-26T02:40:25;8.75;;;6.28;;
61527;SDS011;47395;42.032;-8.634;2023-06-26T02:42:27;8.43;;;6.10;;
61527;SDS011;47395;42.032;-8.634;2023-06-26T02:44:28;7.53;;;6.60;;
61527;SDS011;47395;42.032;-8.634;2023-06-26T02:46:29;8.43;;;6.07;;
61527;SDS011;47395;42.032;-8.634;2023-06-26T02:48:30;6.95;;;6.05;;
61527;SDS011;47395;42.032;-8.634;2023-06-26T02:50:31;9.52;;;5.80;;
61527;SDS011;47395;42.032;-8.634;2023-06-26T02:52:45;11.77;;;6.30;;
61527;SDS011;47395;42.032;-8.634;2023-06-26T02:54:51;11.25;;;6.47;;
61527;SDS011;47395;42.032;-8.634;2023-06-26T02:56:52;9.07;;;6.53;;
61527;SDS011;47395;42.032;-8.634;2023-06-26T02:58:58;7.57;;;5.88;;
61527;SDS011;47395;42.032;-8.634;2023-06-26T03:01:01;7.82;;;6.25;;
61527;SDS011;47395;42.032;-8.634;2023-06-26T03:03:02;10.85;;;6.40;;
61527;SDS011;47395;42.032;-8.634;2023-06-26T03:05:04;13.55;;;6.28;;
61527;SDS011;47395;42.032;-8.634;2023-06-26T03:07:05;9.00;;;6.05;;
61527;SDS011;47395;42.032;-8.634;2023-06-26T03:09:06;8.23;;;6.00;;
61527;SDS011;47395;42.032;-8.634;2023-06-26T03:11:07;7.80;;;5.78;;
61527;SDS011;47395;42.032;-8.634;2023-06-26T03:13:09;6.95;;;6.20;;
61527;SDS011;47395;42.032;-8.634;2023-06-26T03:15:10;7.20;;;6.07;;
61527;SDS011;47395;42.032;-8.634;2023-06-26T03:17:12;7.65;;;6.88;;
61527;SDS011;47395;42.032;-8.634;2023-06-26T03:19:15;8.02;;;6.47;;
61527;SDS011;47395;42.032;-8.634;2023-06-26T03:21:40;8.52;;;6.45;;
61527;SDS011;47395;42.032;-8.634;2023-06-26T03:23:41;11.32;;;6.30;;
61527;SDS011;47395;42.032;-8.634;2023-06-26T03:25:42;7.28;;;5.97;;
61527;SDS011;47395;42.032;-8.634;2023-06-26T03:27:55;15.77;;;6.30;;
61527;SDS011;47395;42.032;-8.634;2023-06-26T03:29:56;6.43;;;5.80;;
61527;SDS011;47395;42.032;-8.634;2023-06-26T03:31:57;15.95;;;6.00;;
61527;SDS011;47395;42.032;-8.634;2023-06-26T03:33:58;6.80;;;5.25;;
61527;SDS011;47395;42.032;-8.634;2023-06-26T03:35:59;9.13;;;6.13;;
61527;SDS011;47395;42.032;-8.634;2023-06-26T03:38:00;10.07;;;5.75;;
61527;SDS011;47395;42.032;-8.634;2023-06-26T03:40:02;6.10;;;5.50;;
61527;SDS011;47395;42.032;-8.634;2023-06-26T03:42:05;8.57;;;5.25;;
61527;SDS011;47395;42.032;-8.634;2023-06-26T03:44:06;5.90;;;4.95;;
61527;SDS011;47395;42.032;-8.634;2023-06-26T03:46:16;10.07;;;5.75;;
61527;SDS011;47395;42.032;-8.634;2023-06-26T03:48:16;6.78;;;5.28;;
61527;SDS011;47395;42.032;-8.634;2023-06-26T03:50:17;7.85;;;5.43;;
61527;SDS011;47395;42.032;-8.634;2023-06-26T03:52:20;5.75;;;5.22;;
61527;SDS011;47395;42.032;-8.634;2023-06-26T03:54:21;10.00;;;4.82;;
61527;SDS011;47395;42.032;-8.634;2023-06-26T03:56:22;8.18;;;4.47;;
61527;SDS011;47395;42.032;-8.634;2023-06-26T03:58:23;8.40;;;4.68;;
61527;SDS011;47395;42.032;-8.634;2023-06-26T04:00:25;6.53;;;5.30;;
61527;SDS011;47395;42.032;-8.634;2023-06-26T04:07:01;9.60;;;5.72;;
61527;SDS011;47395;42.032;-8.634;2023-06-26T04:09:02;7.63;;;5.13;;
61527;SDS011;47395;42.032;-8.634;2023-06-26T04:11:04;5.75;;;5.20;;
61527;SDS011;47395;42.032;-8.634;2023-06-26T04:13:05;8.70;;;5.38;;
61527;SDS011;47395;42.032;-8.634;2023-06-26T04:15:06;10.52;;;5.45;;
61527;SDS011;47395;42.032;-8.634;2023-06-26T04:17:08;5.90;;;4.88;;
61527;SDS011;47395;42.032;-8.634;2023-06-26T04:19:09;6.00;;;5.15;;
61527;SDS011;47395;42.032;-8.634;2023-06-26T04:21:11;9.07;;;5.63;;
61527;SDS011;47395;42.032;-8.634;2023-06-26T04:23:12;8.75;;;5.55;;
61527;SDS011;47395;42.032;-8.634;2023-06-26T04:25:13;9.82;;;5.50;;
61527;SDS011;47395;42.032;-8.634;2023-06-26T04:27:14;10.35;;;5.18;;
61527;SDS011;47395;42.032;-8.634;2023-06-26T04:29:15;10.20;;;6.35;;
61527;SDS011;47395;42.032;-8.634;2023-06-26T04:31:16;13.35;;;6.22;;
61527;SDS011;47395;42.032;-8.634;2023-06-26T04:33:16;11.98;;;6.32;;
61527;SDS011;47395;42.032;-8.634;2023-06-26T04:35:17;8.43;;;5.43;;
61527;SDS011;47395;42.032;-8.634;2023-06-26T04:37:20;9.63;;;5.53;;
61527;SDS011;47395;42.032;-8.634;2023-06-26T04:39:21;7.65;;;5.55;;
61527;SDS011;47395;42.032;-8.634;2023-06-26T04:41:21;6.75;;;5.35;;
61527;SDS011;47395;42.032;-8.634;2023-06-26T04:43:22;10.43;;;6.20;;
61527;SDS011;47395;42.032;-8.634;2023-06-26T04:45:23;6.47;;;5.00;;
61527;SDS011;47395;42.032;-8.634;2023-06-26T04:47:24;6.40;;;5.80;;
61527;SDS011;47395;42.032;-8.634;2023-06-26T04:49:25;6.93;;;5.22;;
61527;SDS011;47395;42.032;-8.634;2023-06-26T04:51:28;7.90;;;5.20;;
61527;SDS011;47395;42.032;-8.634;2023-06-26T04:53:29;7.97;;;5.30;;
61527;SDS011;47395;42.032;-8.634;2023-06-26T04:55:29;7.43;;;5.38;;
61527;SDS011;47395;42.032;-8.634;2023-06-26T04:57:30;11.05;;;5.00;;
61527;SDS011;47395;42.032;-8.634;2023-06-26T04:59:31;8.00;;;5.43;;
61527;SDS011;47395;42.032;-8.634;2023-06-26T05:01:32;6.80;;;5.32;;
61527;SDS011;47395;42.032;-8.634;2023-06-26T05:03:33;6.78;;;5.63;;
61527;SDS011;47395;42.032;-8.634;2023-06-26T05:05:34;6.32;;;5.43;;
61527;SDS011;47395;42.032;-8.634;2023-06-26T05:07:35;8.65;;;4.85;;
61527;SDS011;47395;42.032;-8.634;2023-06-26T05:09:36;7.30;;;5.43;;
61527;SDS011;47395;42.032;-8.634;2023-06-26T05:11:36;5.32;;;4.90;;
61527;SDS011;47395;42.032;-8.634;2023-06-26T05:13:37;7.68;;;5.45;;
61527;SDS011;47395;42.032;-8.634;2023-06-26T05:15:38;6.13;;;4.47;;
61527;SDS011;47395;42.032;-8.634;2023-06-26T05:17:39;6.35;;;4.68;;
61527;SDS011;47395;42.032;-8.634;2023-06-26T05:19:40;5.97;;;4.85;;
61527;SDS011;47395;42.032;-8.634;2023-06-26T05:21:41;8.63;;;5.00;;
61527;SDS011;47395;42.032;-8.634;2023-06-26T05:23:42;5.78;;;4.95;;
61527;SDS011;47395;42.032;-8.634;2023-06-26T05:25:46;5.88;;;4.75;;
61527;SDS011;47395;42.032;-8.634;2023-06-26T05:27:47;5.30;;;4.85;;
61527;SDS011;47395;42.032;-8.634;2023-06-26T05:29:48;6.93;;;5.10;;
61527;SDS011;47395;42.032;-8.634;2023-06-26T05:31:49;5.57;;;5.07;;
61527;SDS011;47395;42.032;-8.634;2023-06-26T05:33:53;7.95;;;4.78;;
61527;SDS011;47395;42.032;-8.634;2023-06-26T05:35:56;6.25;;;4.80;;
61527;SDS011;47395;42.032;-8.634;2023-06-26T05:37:59;7.60;;;4.88;;
61527;SDS011;47395;42.032;-8.634;2023-06-26T05:40:00;6.68;;;4.78;;
61527;SDS011;47395;42.032;-8.634;2023-06-26T05:42:01;6.07;;;4.53;;
61527;SDS011;47395;42.032;-8.634;2023-06-26T05:44:03;5.13;;;4.72;;
61527;SDS011;47395;42.032;-8.634;2023-06-26T05:46:04;6.85;;;4.60;;
61527;SDS011;47395;42.032;-8.634;2023-06-26T05:48:05;6.63;;;5.05;;
61527;SDS011;47395;42.032;-8.634;2023-06-26T05:50:07;5.28;;;4.88;;
61527;SDS011;47395;42.032;-8.634;2023-06-26T05:52:09;6.57;;;4.57;;
61527;SDS011;47395;42.032;-8.634;2023-06-26T05:54:11;15.95;;;4.63;;
61527;SDS011;47395;42.032;-8.634;2023-06-26T05:56:13;7.05;;;4.20;;
61527;SDS011;47395;42.032;-8.634;2023-06-26T05:58:14;6.43;;;4.65;;
61527;SDS011;47395;42.032;-8.634;2023-06-26T06:00:18;10.18;;;5.07;;
61527;SDS011;47395;42.032;-8.634;2023-06-26T06:02:19;5.70;;;3.95;;
61527;SDS011;47395;42.032;-8.634;2023-06-26T06:04:20;4.45;;;4.05;;
61527;SDS011;47395;42.032;-8.634;2023-06-26T06:06:21;11.63;;;4.18;;
61527;SDS011;47395;42.032;-8.634;2023-06-26T06:08:22;5.90;;;3.70;;
61527;SDS011;47395;42.032;-8.634;2023-06-26T06:10:23;5.07;;;4.07;;
61527;SDS011;47395;42.032;-8.634;2023-06-26T06:12:23;7.18;;;3.97;;
61527;SDS011;47395;42.032;-8.634;2023-06-26T06:14:24;4.40;;;3.95;;
61527;SDS011;47395;42.032;-8.634;2023-06-26T06:16:25;4.60;;;4.05;;
61527;SDS011;47395;42.032;-8.634;2023-06-26T06:18:29;4.10;;;3.70;;
61527;SDS011;47395;42.032;-8.634;2023-06-26T06:20:30;5.70;;;4.07;;
61527;SDS011;47395;42.032;-8.634;2023-06-26T06:22:31;8.48;;;4.38;;
61527;SDS011;47395;42.032;-8.634;2023-06-26T06:24:31;4.00;;;3.70;;
61527;SDS011;47395;42.032;-8.634;2023-06-26T06:26:32;13.38;;;4.13;;
61527;SDS011;47395;42.032;-8.634;2023-06-26T06:28:33;4.00;;;3.70;;
61527;SDS011;47395;42.032;-8.634;2023-06-26T06:30:34;3.88;;;3.58;;
61527;SDS011;47395;42.032;-8.634;2023-06-26T06:32:35;7.18;;;4.10;;
61527;SDS011;47395;42.032;-8.634;2023-06-26T06:34:35;6.53;;;4.97;;
61527;SDS011;47395;42.032;-8.634;2023-06-26T06:36:36;4.55;;;3.30;;
61527;SDS011;47395;42.032;-8.634;2023-06-26T06:38:37;3.60;;;3.40;;
61527;SDS011;47395;42.032;-8.634;2023-06-26T06:40:38;4.43;;;4.03;;
61527;SDS011;47395;42.032;-8.634;2023-06-26T06:42:39;4.78;;;3.72;;
61527;SDS011;47395;42.032;-8.634;2023-06-26T06:44:39;4.13;;;3.50;;
61527;SDS011;47395;42.032;-8.634;2023-06-26T06:46:40;7.50;;;4.20;;
61527;SDS011;47395;42.032;-8.634;2023-06-26T06:48:41;5.28;;;4.25;;
61527;SDS011;47395;42.032;-8.634;2023-06-26T06:50:42;4.25;;;4.03;;
61527;SDS011;47395;42.032;-8.634;2023-06-26T06:52:43;7.18;;;4.53;;
61527;SDS011;47395;42.032;-8.634;2023-06-26T06:54:53;6.18;;;3.83;;
61527;SDS011;47395;42.032;-8.634;2023-06-26T06:56:55;5.63;;;3.88;;
61527;SDS011;47395;42.032;-8.634;2023-06-26T06:58:56;5.70;;;3.80;;
61527;SDS011;47395;42.032;-8.634;2023-06-26T07:00:57;3.85;;;3.53;;
61527;SDS011;47395;42.032;-8.634;2023-06-26T07:02:58;3.50;;;3.22;;
61527;SDS011;47395;42.032;-8.634;2023-06-26T07:05:00;4.50;;;3.35;;
61527;SDS011;47395;42.032;-8.634;2023-06-26T07:07:01;3.92;;;3.63;;
61527;SDS011;47395;42.032;-8.634;2023-06-26T07:09:02;4.07;;;3.75;;
61527;SDS011;47395;42.032;-8.634;2023-06-26T07:11:03;7.93;;;3.85;;
61527;SDS011;47395;42.032;-8.634;2023-06-26T07:13:04;3.90;;;3.03;;
61527;SDS011;47395;42.032;-8.634;2023-06-26T07:15:05;3.40;;;3.10;;
61527;SDS011;47395;42.032;-8.634;2023-06-26T07:17:07;4.22;;;3.63;;
61527;SDS011;47395;42.032;-8.634;2023-06-26T07:19:08;4.40;;;3.67;;
61527;SDS011;47395;42.032;-8.634;2023-06-26T07:21:09;5.45;;;3.22;;
61527;SDS011;47395;42.032;-8.634;2023-06-26T07:23:10;3.92;;;3.53;;
61527;SDS011;47395;42.032;-8.634;2023-06-26T07:25:11;3.67;;;3.38;;
61527;SDS011;47395;42.032;-8.634;2023-06-26T07:27:12;6.22;;;4.10;;
61527;SDS011;47395;42.032;-8.634;2023-06-26T07:29:13;4.32;;;3.30;;
61527;SDS011;47395;42.032;-8.634;2023-06-26T07:31:13;3.45;;;3.15;;
61527;SDS011;47395;42.032;-8.634;2023-06-26T07:33:14;4.07;;;2.90;;
61527;SDS011;47395;42.032;-8.634;2023-06-26T07:35:15;3.25;;;3.05;;
61527;SDS011;47395;42.032;-8.634;2023-06-26T07:37:16;9.55;;;3.80;;
61527;SDS011;47395;42.032;-8.634;2023-06-26T07:39:17;4.75;;;3.33;;
61527;SDS011;47395;42.032;-8.634;2023-06-26T07:41:18;4.55;;;3.35;;
61527;SDS011;47395;42.032;-8.634;2023-06-26T07:43:19;3.58;;;3.30;;
61527;SDS011;47395;42.032;-8.634;2023-06-26T07:45:19;3.38;;;3.08;;
61527;SDS011;47395;42.032;-8.634;2023-06-26T07:47:20;3.65;;;3.35;;
61527;SDS011;47395;42.032;-8.634;2023-06-26T07:49:21;8.52;;;4.28;;
61527;SDS011;47395;42.032;-8.634;2023-06-26T07:51:22;4.70;;;3.50;;
61527;SDS011;47395;42.032;-8.634;2023-06-26T07:53:23;3.78;;;3.47;;
61527;SDS011;47395;42.032;-8.634;2023-06-26T07:55:24;5.15;;;3.13;;
61527;SDS011;47395;42.032;-8.634;2023-06-26T07:57:26;6.10;;;3.25;;
61527;SDS011;47395;42.032;-8.634;2023-06-26T07:59:27;3.80;;;3.20;;
61527;SDS011;47395;42.032;-8.634;2023-06-26T08:01:29;4.03;;;3.10;;
61527;SDS011;47395;42.032;-8.634;2023-06-26T08:03:30;5.20;;;3.00;;
61527;SDS011;47395;42.032;-8.634;2023-06-26T08:05:31;10.07;;;3.75;;
61527;SDS011;47395;42.032;-8.634;2023-06-26T08:07:32;3.67;;;3.35;;
61527;SDS011;47395;42.032;-8.634;2023-06-26T08:09:35;5.35;;;3.03;;
61527;SDS011;47395;42.032;-8.634;2023-06-26T08:11:36;4.20;;;3.38;;
61527;SDS011;47395;42.032;-8.634;2023-06-26T08:13:37;3.60;;;3.30;;
61527;SDS011;47395;42.032;-8.634;2023-06-26T08:15:38;3.08;;;2.80;;
61527;SDS011;47395;42.032;-8.634;2023-06-26T08:17:39;3.22;;;3.08;;
61527;SDS011;47395;42.032;-8.634;2023-06-26T08:22:12;3.70;;;3.33;;
61527;SDS011;47395;42.032;-8.634;2023-06-26T08:24:13;3.65;;;3.35;;
61527;SDS011;47395;42.032;-8.634;2023-06-26T08:26:16;3.95;;;3.45;;
61527;SDS011;47395;42.032;-8.634;2023-06-26T08:28:17;3.72;;;3.10;;
61527;SDS011;47395;42.032;-8.634;2023-06-26T08:30:19;5.85;;;3.40;;
61527;SDS011;47395;42.032;-8.634;2023-06-26T08:32:19;6.82;;;3.35;;
61527;SDS011;47395;42.032;-8.634;2023-06-26T08:34:20;3.63;;;3.33;;
61527;SDS011;47395;42.032;-8.634;2023-06-26T08:36:21;3.53;;;3.22;;
61527;SDS011;47395;42.032;-8.634;2023-06-26T08:38:22;6.30;;;3.33;;
61527;SDS011;47395;42.032;-8.634;2023-06-26T08:40:22;3.75;;;3.38;;
61527;SDS011;47395;42.032;-8.634;2023-06-26T08:42:24;3.10;;;2.90;;
61527;SDS011;47395;42.032;-8.634;2023-06-26T08:44:25;3.58;;;3.35;;
61527;SDS011;47395;42.032;-8.634;2023-06-26T08:46:26;3.55;;;3.25;;
61527;SDS011;47395;42.032;-8.634;2023-06-26T08:48:29;3.47;;;3.17;;
61527;SDS011;47395;42.032;-8.634;2023-06-26T08:50:34;5.07;;;3.47;;
61527;SDS011;47395;42.032;-8.634;2023-06-26T08:52:56;3.42;;;3.22;;
61527;SDS011;47395;42.032;-8.634;2023-06-26T08:55:11;6.70;;;3.38;;
61527;SDS011;47395;42.032;-8.634;2023-06-26T08:57:16;4.90;;;2.97;;
61527;SDS011;47395;42.032;-8.634;2023-06-26T08:59:18;3.22;;;2.92;;
61527;SDS011;47395;42.032;-8.634;2023-06-26T09:01:21;4.10;;;2.85;;
61527;SDS011;47395;42.032;-8.634;2023-06-26T09:03:24;3.00;;;2.80;;
61527;SDS011;47395;42.032;-8.634;2023-06-26T09:05:26;7.03;;;3.05;;
61527;SDS011;47395;42.032;-8.634;2023-06-26T09:07:32;3.10;;;2.78;;
61527;SDS011;47395;42.032;-8.634;2023-06-26T09:09:32;4.10;;;2.95;;
61527;SDS011;47395;42.032;-8.634;2023-06-26T09:11:33;3.40;;;2.80;;
61527;SDS011;47395;42.032;-8.634;2023-06-26T09:13:34;3.55;;;3.03;;
61527;SDS011;47395;42.032;-8.634;2023-06-26T09:15:44;3.10;;;2.90;;
61527;SDS011;47395;42.032;-8.634;2023-06-26T09:17:48;5.13;;;3.08;;
61527;SDS011;47395;42.032;-8.634;2023-06-26T09:19:49;3.00;;;2.58;;
61527;SDS011;47395;42.032;-8.634;2023-06-26T09:21:50;4.15;;;3.28;;
61527;SDS011;47395;42.032;-8.634;2023-06-26T09:23:54;3.28;;;3.08;;
61527;SDS011;47395;42.032;-8.634;2023-06-26T09:25:55;3.17;;;2.90;;
61527;SDS011;47395;42.032;-8.634;2023-06-26T09:27:56;5.80;;;2.90;;
61527;SDS011;47395;42.032;-8.634;2023-06-26T09:29:57;2.92;;;2.72;;
61527;SDS011;47395;42.032;-8.634;2023-06-26T09:31:59;3.30;;;2.70;;
61527;SDS011;47395;42.032;-8.634;2023-06-26T09:34:00;2.97;;;2.78;;
61527;SDS011;47395;42.032;-8.634;2023-06-26T09:38:36;4.50;;;3.13;;
61527;SDS011;47395;42.032;-8.634;2023-06-26T09:40:37;4.20;;;2.85;;
61527;SDS011;47395;42.032;-8.634;2023-06-26T09:42:41;4.63;;;2.85;;
61527;SDS011;47395;42.032;-8.634;2023-06-26T09:44:46;3.28;;;3.08;;
61527;SDS011;47395;42.032;-8.634;2023-06-26T09:46:47;2.70;;;2.60;;
61527;SDS011;47395;42.032;-8.634;2023-06-26T09:48:48;3.25;;;3.05;;
61527;SDS011;47395;42.032;-8.634;2023-06-26T09:50:49;3.05;;;2.75;;
61527;SDS011;47395;42.032;-8.634;2023-06-26T09:52:50;2.80;;;2.70;;
61527;SDS011;47395;42.032;-8.634;2023-06-26T09:55:06;3.50;;;3.20;;
61527;SDS011;47395;42.032;-8.634;2023-06-26T09:57:11;5.05;;;2.83;;
61527;SDS011;47395;42.032;-8.634;2023-06-26T09:59:13;3.10;;;2.90;;
61527;SDS011;47395;42.032;-8.634;2023-06-26T10:01:16;3.40;;;2.92;;
61527;SDS011;47395;42.032;-8.634;2023-06-26T10:03:18;3.30;;;2.78;;
61527;SDS011;47395;42.032;-8.634;2023-06-26T10:05:19;3.17;;;2.88;;
61527;SDS011;47395;42.032;-8.634;2023-06-26T10:09:24;5.22;;;2.88;;
61527;SDS011;47395;42.032;-8.634;2023-06-26T10:11:27;7.78;;;2.83;;
61527;SDS011;47395;42.032;-8.634;2023-06-26T10:13:37;3.00;;;2.80;;
61527;SDS011;47395;42.032;-8.634;2023-06-26T10:15:40;2.70;;;2.60;;
61527;SDS011;47395;42.032;-8.634;2023-06-26T10:17:45;3.00;;;2.80;;
61527;SDS011;47395;42.032;-8.634;2023-06-26T10:19:48;3.08;;;2.88;;
61527;SDS011;47395;42.032;-8.634;2023-06-26T10:21:52;2.83;;;2.70;;
61527;SDS011;47395;42.032;-8.634;2023-06-26T10:23:54;2.72;;;2.53;;
61527;SDS011;47395;42.032;-8.634;2023-06-26T10:25:58;5.45;;;3.00;;
61527;SDS011;47395;42.032;-8.634;2023-06-26T10:28:01;3.00;;;2.80;;
61527;SDS011;47395;42.032;-8.634;2023-06-26T10:30:04;3.95;;;2.50;;
61527;SDS011;47395;42.032;-8.634;2023-06-26T10:32:10;3.55;;;2.80;;
61527;SDS011;47395;42.032;-8.634;2023-06-26T10:34:13;3.13;;;2.92;;
61527;SDS011;47395;42.032;-8.634;2023-06-26T10:36:15;3.80;;;3.00;;
61527;SDS011;47395;42.032;-8.634;2023-06-26T10:38:15;2.90;;;2.67;;
61527;SDS011;47395;42.032;-8.634;2023-06-26T10:40:26;4.50;;;2.88;;
61527;SDS011;47395;42.032;-8.634;2023-06-26T10:42:37;3.25;;;2.78;;
61527;SDS011;47395;42.032;-8.634;2023-06-26T10:44:43;3.30;;;2.88;;
61527;SDS011;47395;42.032;-8.634;2023-06-26T10:46:54;3.25;;;2.83;;
61527;SDS011;47395;42.032;-8.634;2023-06-26T10:48:57;3.00;;;2.80;;
61527;SDS011;47395;42.032;-8.634;2023-06-26T10:51:13;3.10;;;2.90;;
61527;SDS011;47395;42.032;-8.634;2023-06-26T10:55:33;3.00;;;2.90;;
61527;SDS011;47395;42.032;-8.634;2023-06-26T10:57:35;3.10;;;2.90;;
61527;SDS011;47395;42.032;-8.634;2023-06-26T10:59:39;3.22;;;3.00;;
61527;SDS011;47395;42.032;-8.634;2023-06-26T11:01:41;3.10;;;3.00;;
61527;SDS011;47395;42.032;-8.634;2023-06-26T11:03:46;10.48;;;2.63;;
61527;SDS011;47395;42.032;-8.634;2023-06-26T11:06:08;3.65;;;3.33;;
61527;SDS011;47395;42.032;-8.634;2023-06-26T11:08:12;3.33;;;3.03;;
61527;SDS011;47395;42.032;-8.634;2023-06-26T11:10:19;5.18;;;3.00;;
61527;SDS011;47395;42.032;-8.634;2023-06-26T11:14:58;3.33;;;3.08;;
61527;SDS011;47395;42.032;-8.634;2023-06-26T11:16:59;5.07;;;2.97;;
61527;SDS011;47395;42.032;-8.634;2023-06-26T11:19:03;4.82;;;2.90;;
61527;SDS011;47395;42.032;-8.634;2023-06-26T11:21:07;4.20;;;3.30;;
61527;SDS011;47395;42.032;-8.634;2023-06-26T11:23:09;3.72;;;3.47;;
61527;SDS011;47395;42.032;-8.634;2023-06-26T11:25:11;3.13;;;2.92;;
61527;SDS011;47395;42.032;-8.634;2023-06-26T11:27:12;2.92;;;2.65;;
61527;SDS011;47395;42.032;-8.634;2023-06-26T11:29:13;3.25;;;3.15;;
61527;SDS011;47395;42.032;-8.634;2023-06-26T11:31:27;3.47;;;3.17;;
61527;SDS011;47395;42.032;-8.634;2023-06-26T11:33:31;8.05;;;3.08;;
61527;SDS011;47395;42.032;-8.634;2023-06-26T11:35:32;3.08;;;2.97;;
61527;SDS011;47395;42.032;-8.634;2023-06-26T11:37:33;2.60;;;2.30;;
61527;SDS011;47395;42.032;-8.634;2023-06-26T11:39:34;4.10;;;3.00;;
61527;SDS011;47395;42.032;-8.634;2023-06-26T11:41:38;3.70;;;2.80;;
61527;SDS011;47395;42.032;-8.634;2023-06-26T11:43:40;4.05;;;3.33;;
61527;SDS011;47395;42.032;-8.634;2023-06-26T11:45:41;3.80;;;2.90;;
61527;SDS011;47395;42.032;-8.634;2023-06-26T11:47:42;3.28;;;3.08;;
61527;SDS011;47395;42.032;-8.634;2023-06-26T11:49:49;4.15;;;2.90;;
61527;SDS011;47395;42.032;-8.634;2023-06-26T11:51:50;8.27;;;3.08;;
61527;SDS011;47395;42.032;-8.634;2023-06-26T11:53:51;2.70;;;2.60;;
61527;SDS011;47395;42.032;-8.634;2023-06-26T11:55:52;5.50;;;2.85;;
61527;SDS011;47395;42.032;-8.634;2023-06-26T11:57:54;3.60;;;3.05;;
61527;SDS011;47395;42.032;-8.634;2023-06-26T11:59:55;3.42;;;3.13;;
61527;SDS011;47395;42.032;-8.634;2023-06-26T12:01:56;3.25;;;3.05;;
61527;SDS011;47395;42.032;-8.634;2023-06-26T12:03:58;4.93;;;2.92;;
61527;SDS011;47395;42.032;-8.634;2023-06-26T12:06:01;3.40;;;3.20;;
61527;SDS011;47395;42.032;-8.634;2023-06-26T12:08:06;3.58;;;3.03;;
61527;SDS011;47395;42.032;-8.634;2023-06-26T12:10:07;2.55;;;2.45;;
61527;SDS011;47395;42.032;-8.634;2023-06-26T12:12:10;3.05;;;2.90;;
61527;SDS011;47395;42.032;-8.634;2023-06-26T12:14:11;3.22;;;3.10;;
61527;SDS011;47395;42.032;-8.634;2023-06-26T12:16:12;3.83;;;2.95;;
61527;SDS011;47395;42.032;-8.634;2023-06-26T12:18:15;3.03;;;2.92;;
61527;SDS011;47395;42.032;-8.634;2023-06-26T12:20:19;3.88;;;3.00;;
61527;SDS011;47395;42.032;-8.634;2023-06-26T12:22:23;3.30;;;3.10;;
61527;SDS011;47395;42.032;-8.634;2023-06-26T12:24:24;6.97;;;3.47;;
61527;SDS011;47395;42.032;-8.634;2023-06-26T12:26:26;3.28;;;3.08;;